»·PEaware :: N411CZ KSNA-KBUR

N411CZ :: KSNA-KBUR

FLIGHT INFORMATION

Flight Status: Arrived
Operator: Privately registered:
United States
More flights under this callsign
Pilot: Christian U. (16550)
Aircraft: PIPER PA-28 CHEROKEE ARCHER
(P28A)
More flights by this aircraft type
Origin: KSNA John Wayne-Orange Co
United States
Destination: KBUR Bob Hope-Burbank
United States
More flights between these airports :: More routes between these airports
Route:
File this flight plan on PilotEdge
Remarks:
Altitude:
(Current/Filed)
4,500ft
Speed:
(Current/Filed)
100kts
Departed: 20-Nov-20 08:29 AM
Arrived: 20-Nov-20 09:06 AM
Distance/Time
Traveled:
40nm/0:37
Distance/Time
To Go:
Arrived

Flight Plot

Page will automatically refresh every two minutes.


Map Options




Map Legend


Flown Route
Filed Route
Departure Airport
Arrival Airport
Navaid (VOR, NDB)
Fix

Horizontal Profiles

Position Reports

Time Latitude Longitude Heading Altitude Ground
Speed
20-Nov-20 08:18 33.674081 -117.872230 0 57ft 0kts
20-Nov-20 08:19 33.674081 -117.872230 298 57ft 0kts
20-Nov-20 08:20 33.674081 -117.872230 298 57ft 0kts
20-Nov-20 08:21 33.674081 -117.872230 298 57ft 0kts
20-Nov-20 08:22 33.674081 -117.872230 298 57ft 0kts
20-Nov-20 08:23 33.674081 -117.872230 298 57ft 0kts
20-Nov-20 08:24 33.674295 -117.871211 26 57ft 9kts
20-Nov-20 08:25 33.677827 -117.868977 27 57ft 17kts
20-Nov-20 08:26 33.681175 -117.866373 114 57ft 0kts
20-Nov-20 08:27 33.680627 -117.865708 208 57ft 12kts
20-Nov-20 08:28 33.667539 -117.880125 250 590ft 85kts
20-Nov-20 08:29 33.660069 -117.907885 251 1389ft 78kts
20-Nov-20 08:30 33.653547 -117.931891 251 2113ft 74kts
20-Nov-20 08:31 33.645338 -117.960969 250 2296ft 105kts
20-Nov-20 08:32 33.655219 -117.980955 6 2844ft 96kts
20-Nov-20 08:33 33.681577 -117.974942 8 3446ft 96kts
20-Nov-20 08:34 33.708023 -117.968609 8 4050ft 98kts
20-Nov-20 08:35 33.735522 -117.961943 9 4422ft 107kts
20-Nov-20 08:36 33.764110 -117.955445 8 4419ft 103kts
20-Nov-20 08:37 33.791778 -117.947279 24 4419ft 103kts
20-Nov-20 08:38 33.817387 -117.931694 24 4420ft 103kts
20-Nov-20 08:39 33.843092 -117.915947 24 4420ft 103kts
20-Nov-20 08:40 33.868698 -117.900258 24 4420ft 103kts
20-Nov-20 08:41 33.894102 -117.884690 24 4420ft 103kts
20-Nov-20 08:42 33.919689 -117.869005 24 4420ft 103kts
20-Nov-20 08:43 33.946354 -117.856787 7 4413ft 102kts
20-Nov-20 08:44 33.974706 -117.853367 357 4416ft 102kts
20-Nov-20 08:45 34.003215 -117.853752 357 4419ft 102kts
20-Nov-20 08:46 34.031602 -117.854172 357 4422ft 102kts
20-Nov-20 08:47 34.053612 -117.871849 300 4425ft 102kts
20-Nov-20 08:48 34.065025 -117.903290 291 4423ft 102kts
20-Nov-20 08:49 34.075040 -117.935644 288 4421ft 102kts
20-Nov-20 08:50 34.084223 -117.968293 288 4419ft 102kts
20-Nov-20 08:51 34.093395 -118.000900 288 4417ft 102kts
20-Nov-20 08:52 34.102420 -118.033754 284 4415ft 102kts
20-Nov-20 08:53 34.109212 -118.067326 283 4412ft 103kts
20-Nov-20 08:54 34.115975 -118.100887 284 4411ft 103kts
20-Nov-20 08:55 34.122752 -118.134490 284 4417ft 102kts
20-Nov-20 08:56 34.129903 -118.170366 284 3932ft 111kts
20-Nov-20 08:57 34.137064 -118.206499 284 3432ft 110kts
20-Nov-20 08:58 34.144331 -118.242449 285 2906ft 111kts
20-Nov-20 08:59 34.159008 -118.274450 307 2362ft 110kts
20-Nov-20 09:00 34.176223 -118.304608 303 1930ft 102kts
20-Nov-20 09:01 34.190174 -118.332704 298 1833ft 99kts
20-Nov-20 09:02 34.211217 -118.347246 340 1858ft 83kts
20-Nov-20 09:03 34.227740 -118.360237 253 1533ft 84kts
20-Nov-20 09:04 34.208738 -118.359484 166 761ft 58kts
20-Nov-20 09:05 34.202815 -118.358760 253 728ft 0kts
20-Nov-20 09:06 34.201654 -118.359955 172 726ft 0kts
20-Nov-20 09:07 34.201654 -118.359955 172 726ft 0kts

Navigation Log

Ident Type
Flight plan parsing failed, navigation log unavailable